Lebanon, OR

6:09 PM PST on December 26, 2014 (GMT -0800)
McNary | Change Station
CLOSE
Current Station
Airport
Location: Salem,
Elevation: 200 ft
Nearby Weather Stations

Elev 200 ft 44.91 °N, 123.00 °W | Updated 13 minutes ago

Partly Cloudy
Partly Cloudy
42 °F
Feels Like 42 °F
N
0
Wind Variable Wind from North

Today
High -- | Low -- °F
--% Chance of Precip.
Yesterday
High -- | Low -- °F
Precip. -- in
7:47 AM 4:37 PM
Waxing Crescent, 31% visible
Pressure 30.34 in
Visibility 10.0 miles
Clouds Mostly Cloudy 6000 ft
Dew Point 39 °F
Humidity 89%
Rainfall 0.00 in
Snow Depth Not available.
UV 0 out of 12
Pollen 1.60 out of 12
Air Quality Not available.
Flu Activity Not available.
METAR KSLE 270156Z 00000KT 10SM BKN060 06/04 A3033 RMK AO2 SLP272 T00560039

More Conditions Fewer Conditions

Pressure 30.34 in
Visibility 10.0 miles
Clouds Mostly Cloudy 6000 ft
Dew Point 39 °F
Humidity 89%
Rainfall 0.00 in
Snow Depth Not available.
UV 0 out of 12
Pollen 1.60 out of 12
Air Quality Not available.
Flu Activity Not available.
METAR KSLE 270156Z 00000KT 10SM BKN060 06/04 A3033 RMK AO2 SLP272 T00560039

More Conditions Fewer Conditions

10-Day Weather Forecast

Almanac

Astronomy

Dec. 26, 2014 Rise Set
Actual Time
Civil Twilight
Nautical Twilight
Astronomical Twilight
Moon
Length of Visible Light
Length of Day
Tomorrow will be .
, % of the Moon is Illuminated

Today's Extremes

State Highs State Lows

Community

WunderPhotos

Upload Photos

1,780,807 photos uploaded!

WunderBlogs® & News

Nearby

Air Quality

  Air Quality AQ Index Pollutant
Not available.

Snow Depth

Station Depth Elevation

Earthquake Activity

City Distance Mag. Time & Date
Minimum magnitude displayed is 2.5.

Coastal Water Temperatures

Place Temperature

Nearby Weather Stations